• Join FlightAware (Why Join?)
  • Login
  • US Flag 
06:42PM EDT


 

Airport Tracker/Info


-or-


 

Live Flight TrackerFlight Track Log ✈ N6198F ✈ 15-Jun-2014 ✈ KATL - KGAD

Flight Track Log - Related Links

Times and Time Zones

All times are in EDT time to prevent confusion due to time zone crossing. See the N6198F flight status page for this flight to view local times or setup timezone preferences in your user account.

Time Position Orientation Groundspeed Altitude Reporting Facility
EDT Latitude Longitude Course Direction KTS MPH feet Rate Location/Type
12:32PM 33.8550 -85.0444 276° West 113 130 4,400  Level Atlanta Center
12:33PM 33.8586 -85.0844 276° West 113 130 4,400  Level Atlanta Center
12:34PM 33.8625 -85.1194 278° West 113 130 4,400  Level Atlanta Center
12:35PM 33.8706 -85.1547 285° West 113 130 4,500  Climbing Atlanta Center
12:36PM 33.8744 -85.1897 278° West 108 124 4,400  Descending Atlanta Center
12:37PM 33.8761 -85.2272 273° West 108 124 4,500  Climbing Atlanta Center
12:38PM 33.8819 -85.2650 281° West 103 119 4,400 -60 Descending Atlanta Center
12:39PM 33.8881 -85.3000 282° West 103 119 4,400  Level Atlanta Center
12:40PM 33.8917 -85.3350 277° West 103 119 4,400  Level Atlanta Center
12:41PM 33.8936 -85.3728 274° West 108 124 4,400  Level Atlanta Center
12:42PM 33.8994 -85.4103 281° West 113 130 4,400  Level Atlanta Center
12:43PM 33.9031 -85.4506 276° West 118 136 4,500  Climbing Atlanta Center
12:44PM 33.9047 -85.4881 273° West 123 142 4,400 -60 Descending Atlanta Center
12:45PM 33.9128 -85.5231 286° West 123 142 4,400  Level Atlanta Center
12:46PM 33.9164 -85.5608 277° West 123 142 4,400 -60 Level Atlanta Center
12:47PM 33.9242 -85.5961 285° West 118 136 4,300  Descending Atlanta Center
12:48PM 33.9239 -85.6336 269° West 118 136 4,400  Climbing Atlanta Center
12:49PM 33.9275 -85.6686 277° West 118 136 4,400  Level Atlanta Center
12:50PM 33.9311 -85.7036 277° West 118 136 4,400  Level Atlanta Center
12:51PM 33.9453 -85.7367 297° West 107 123 4,500  Climbing Atlanta Center
12:52PM 33.9492 -85.7717 278° West 107 123 4,500 -180 Level Atlanta Center
12:53PM 33.9547 -85.8044 282° West 107 123 4,200 -360 Descending Atlanta Center
12:54PM 33.9542 -85.8444 269° West 114 131 3,800 120 Descending Atlanta Center
12:55PM 33.9619 -85.8847 283° West 114 131 4,500 300 Climbing Atlanta Center
12:56PM 33.9656 -85.9222 277° West 114 131 4,500  Level Atlanta Center
12:57PM 33.9694 -85.9450 282° West 114 131 4,500  Level Atlanta Center